sensor_id;sensor_type;location;lat;lon;timestamp;temperature;humidity
18229;DHT22;9239;50.932;3.142;2023-02-04T00:00:08;10.30;99.90
18229;DHT22;9239;50.932;3.142;2023-02-04T00:02:36;10.30;99.90
18229;DHT22;9239;50.932;3.142;2023-02-04T00:05:04;10.40;99.90
18229;DHT22;9239;50.932;3.142;2023-02-04T00:07:32;10.40;99.90
18229;DHT22;9239;50.932;3.142;2023-02-04T00:09:59;10.40;99.90
18229;DHT22;9239;50.932;3.142;2023-02-04T00:12:27;10.30;99.90
18229;DHT22;9239;50.932;3.142;2023-02-04T00:14:54;10.30;99.90
18229;DHT22;9239;50.932;3.142;2023-02-04T00:17:21;10.40;99.90
18229;DHT22;9239;50.932;3.142;2023-02-04T00:19:48;10.40;99.90
18229;DHT22;9239;50.932;3.142;2023-02-04T00:22:15;10.30;99.90
18229;DHT22;9239;50.932;3.142;2023-02-04T00:24:42;10.30;99.90
18229;DHT22;9239;50.932;3.142;2023-02-04T00:27:13;10.40;99.90
18229;DHT22;9239;50.932;3.142;2023-02-04T00:29:41;10.40;99.90
18229;DHT22;9239;50.932;3.142;2023-02-04T00:32:08;10.30;99.90
18229;DHT22;9239;50.932;3.142;2023-02-04T00:34:35;10.30;99.90
18229;DHT22;9239;50.932;3.142;2023-02-04T00:37:02;10.30;99.90
18229;DHT22;9239;50.932;3.142;2023-02-04T00:39:29;10.30;99.90
18229;DHT22;9239;50.932;3.142;2023-02-04T00:41:56;10.30;99.90
18229;DHT22;9239;50.932;3.142;2023-02-04T00:44:23;10.30;99.90
18229;DHT22;9239;50.932;3.142;2023-02-04T00:46:58;10.30;99.90
18229;DHT22;9239;50.932;3.142;2023-02-04T00:49:26;10.30;99.90
18229;DHT22;9239;50.932;3.142;2023-02-04T00:51:53;10.30;99.90
18229;DHT22;9239;50.932;3.142;2023-02-04T00:54:20;10.30;99.90
18229;DHT22;9239;50.932;3.142;2023-02-04T00:56:47;10.30;99.90
18229;DHT22;9239;50.932;3.142;2023-02-04T00:59:13;10.30;99.90
18229;DHT22;9239;50.932;3.142;2023-02-04T01:01:40;10.20;99.90
18229;DHT22;9239;50.932;3.142;2023-02-04T01:04:08;10.20;99.90
18229;DHT22;9239;50.932;3.142;2023-02-04T01:06:36;10.20;99.90
18229;DHT22;9239;50.932;3.142;2023-02-04T01:09:03;10.20;99.90
18229;DHT22;9239;50.932;3.142;2023-02-04T01:11:30;10.30;99.90
18229;DHT22;9239;50.932;3.142;2023-02-04T01:13:57;10.30;99.90
18229;DHT22;9239;50.932;3.142;2023-02-04T01:16:24;10.20;99.90
18229;DHT22;9239;50.932;3.142;2023-02-04T01:18:51;10.20;99.90
18229;DHT22;9239;50.932;3.142;2023-02-04T01:21:22;10.30;99.90
18229;DHT22;9239;50.932;3.142;2023-02-04T01:23:48;10.20;99.90
18229;DHT22;9239;50.932;3.142;2023-02-04T01:26:15;10.20;99.90
18229;DHT22;9239;50.932;3.142;2023-02-04T01:28:42;10.20;99.90
18229;DHT22;9239;50.932;3.142;2023-02-04T01:31:09;10.20;99.90
18229;DHT22;9239;50.932;3.142;2023-02-04T01:33:36;10.20;99.90
18229;DHT22;9239;50.932;3.142;2023-02-04T01:36:04;10.20;99.90
18229;DHT22;9239;50.932;3.142;2023-02-04T01:38:32;10.20;99.90
18229;DHT22;9239;50.932;3.142;2023-02-04T01:40:59;10.20;99.90
18229;DHT22;9239;50.932;3.142;2023-02-04T01:43:27;10.20;99.90
18229;DHT22;9239;50.932;3.142;2023-02-04T01:45:57;10.20;99.90
18229;DHT22;9239;50.932;3.142;2023-02-04T01:48:25;10.20;99.90
18229;DHT22;9239;50.932;3.142;2023-02-04T01:50:56;10.20;99.90
18229;DHT22;9239;50.932;3.142;2023-02-04T01:53:25;10.20;99.90
18229;DHT22;9239;50.932;3.142;2023-02-04T01:55:54;10.20;99.90
18229;DHT22;9239;50.932;3.142;2023-02-04T01:58:20;10.10;99.90
18229;DHT22;9239;50.932;3.142;2023-02-04T02:00:47;10.10;99.90
18229;DHT22;9239;50.932;3.142;2023-02-04T02:03:14;10.10;99.90
18229;DHT22;9239;50.932;3.142;2023-02-04T02:05:44;10.10;99.90
18229;DHT22;9239;50.932;3.142;2023-02-04T02:08:12;10.20;99.90
18229;DHT22;9239;50.932;3.142;2023-02-04T02:10:43;10.10;99.90
18229;DHT22;9239;50.932;3.142;2023-02-04T02:13:14;10.10;99.90
18229;DHT22;9239;50.932;3.142;2023-02-04T02:15:41;10.10;99.90
18229;DHT22;9239;50.932;3.142;2023-02-04T02:18:09;10.10;99.90
18229;DHT22;9239;50.932;3.142;2023-02-04T02:20:36;10.00;99.90
18229;DHT22;9239;50.932;3.142;2023-02-04T02:23:10;10.00;99.90
18229;DHT22;9239;50.932;3.142;2023-02-04T02:25:41;10.00;99.90
18229;DHT22;9239;50.932;3.142;2023-02-04T02:28:10;10.00;99.90
18229;DHT22;9239;50.932;3.142;2023-02-04T02:30:38;10.00;99.90
18229;DHT22;9239;50.932;3.142;2023-02-04T02:33:06;10.00;99.90
18229;DHT22;9239;50.932;3.142;2023-02-04T02:35:33;9.90;99.90
18229;DHT22;9239;50.932;3.142;2023-02-04T02:38:00;10.00;99.90
18229;DHT22;9239;50.932;3.142;2023-02-04T02:40:27;10.00;99.90
18229;DHT22;9239;50.932;3.142;2023-02-04T02:42:55;9.90;99.90
18229;DHT22;9239;50.932;3.142;2023-02-04T02:45:25;9.90;99.90
18229;DHT22;9239;50.932;3.142;2023-02-04T02:47:52;9.90;99.90
18229;DHT22;9239;50.932;3.142;2023-02-04T02:50:23;9.90;99.90
18229;DHT22;9239;50.932;3.142;2023-02-04T02:52:51;9.90;99.90
18229;DHT22;9239;50.932;3.142;2023-02-04T02:55:20;9.90;99.90
18229;DHT22;9239;50.932;3.142;2023-02-04T02:57:48;9.90;99.90
18229;DHT22;9239;50.932;3.142;2023-02-04T03:00:19;9.90;99.90
18229;DHT22;9239;50.932;3.142;2023-02-04T03:02:54;9.90;99.90
18229;DHT22;9239;50.932;3.142;2023-02-04T03:05:23;9.90;99.90
18229;DHT22;9239;50.932;3.142;2023-02-04T03:07:50;9.90;99.90
18229;DHT22;9239;50.932;3.142;2023-02-04T03:10:18;9.90;99.90
18229;DHT22;9239;50.932;3.142;2023-02-04T03:12:46;9.90;99.90
18229;DHT22;9239;50.932;3.142;2023-02-04T03:15:13;10.00;99.90
18229;DHT22;9239;50.932;3.142;2023-02-04T03:17:42;9.90;99.90
18229;DHT22;9239;50.932;3.142;2023-02-04T03:20:10;9.90;99.90
18229;DHT22;9239;50.932;3.142;2023-02-04T03:22:38;10.00;99.90
18229;DHT22;9239;50.932;3.142;2023-02-04T03:25:06;10.00;99.90
18229;DHT22;9239;50.932;3.142;2023-02-04T03:27:33;10.00;99.90
18229;DHT22;9239;50.932;3.142;2023-02-04T03:30:00;9.90;99.90
18229;DHT22;9239;50.932;3.142;2023-02-04T03:32:27;9.90;99.90
18229;DHT22;9239;50.932;3.142;2023-02-04T03:34:55;9.90;99.90
18229;DHT22;9239;50.932;3.142;2023-02-04T03:37:22;9.90;99.90
18229;DHT22;9239;50.932;3.142;2023-02-04T03:39:49;9.90;99.90
18229;DHT22;9239;50.932;3.142;2023-02-04T03:42:16;9.90;99.90
18229;DHT22;9239;50.932;3.142;2023-02-04T03:44:43;9.90;99.90
18229;DHT22;9239;50.932;3.142;2023-02-04T03:47:10;9.90;99.90
18229;DHT22;9239;50.932;3.142;2023-02-04T03:49:37;9.90;99.90
18229;DHT22;9239;50.932;3.142;2023-02-04T03:52:06;9.90;99.90
18229;DHT22;9239;50.932;3.142;2023-02-04T03:54:33;9.80;99.90
18229;DHT22;9239;50.932;3.142;2023-02-04T03:57:00;9.90;99.90
18229;DHT22;9239;50.932;3.142;2023-02-04T03:59:27;9.80;99.90
18229;DHT22;9239;50.932;3.142;2023-02-04T04:01:54;9.80;99.90
18229;DHT22;9239;50.932;3.142;2023-02-04T04:04:21;9.80;99.90
18229;DHT22;9239;50.932;3.142;2023-02-04T04:06:47;9.70;99.90
18229;DHT22;9239;50.932;3.142;2023-02-04T04:09:16;9.70;99.90
18229;DHT22;9239;50.932;3.142;2023-02-04T04:11:43;9.60;99.90
18229;DHT22;9239;50.932;3.142;2023-02-04T04:14:09;9.60;99.90
18229;DHT22;9239;50.932;3.142;2023-02-04T04:16:36;9.60;99.90
18229;DHT22;9239;50.932;3.142;2023-02-04T04:19:03;9.60;99.90
18229;DHT22;9239;50.932;3.142;2023-02-04T04:21:30;9.60;99.90
18229;DHT22;9239;50.932;3.142;2023-02-04T04:23:57;9.50;99.90
18229;DHT22;9239;50.932;3.142;2023-02-04T04:26:26;9.50;99.90
18229;DHT22;9239;50.932;3.142;2023-02-04T04:28:53;9.50;99.90
18229;DHT22;9239;50.932;3.142;2023-02-04T04:31:20;9.50;99.90
18229;DHT22;9239;50.932;3.142;2023-02-04T04:33:47;9.50;99.90
18229;DHT22;9239;50.932;3.142;2023-02-04T04:36:14;9.40;99.90
18229;DHT22;9239;50.932;3.142;2023-02-04T04:38:41;9.30;99.90
18229;DHT22;9239;50.932;3.142;2023-02-04T04:41:08;9.30;99.90
18229;DHT22;9239;50.932;3.142;2023-02-04T04:43:36;9.20;99.90
18229;DHT22;9239;50.932;3.142;2023-02-04T04:46:03;9.20;99.90
18229;DHT22;9239;50.932;3.142;2023-02-04T04:48:30;9.10;99.90
18229;DHT22;9239;50.932;3.142;2023-02-04T04:50:57;9.20;99.90
18229;DHT22;9239;50.932;3.142;2023-02-04T04:53:24;9.10;99.90
18229;DHT22;9239;50.932;3.142;2023-02-04T04:55:50;9.10;99.90
18229;DHT22;9239;50.932;3.142;2023-02-04T04:58:17;9.10;99.90
18229;DHT22;9239;50.932;3.142;2023-02-04T05:00:45;9.00;99.90
18229;DHT22;9239;50.932;3.142;2023-02-04T05:03:12;9.00;99.90
18229;DHT22;9239;50.932;3.142;2023-02-04T05:05:39;9.00;99.90
18229;DHT22;9239;50.932;3.142;2023-02-04T05:08:06;9.00;99.90
18229;DHT22;9239;50.932;3.142;2023-02-04T05:10:35;8.90;99.90
18229;DHT22;9239;50.932;3.142;2023-02-04T05:13:02;8.90;99.90
18229;DHT22;9239;50.932;3.142;2023-02-04T05:15:29;8.90;99.90
18229;DHT22;9239;50.932;3.142;2023-02-04T05:17:57;8.80;99.90
18229;DHT22;9239;50.932;3.142;2023-02-04T05:20:24;8.80;99.90
18229;DHT22;9239;50.932;3.142;2023-02-04T05:22:51;8.80;99.90
18229;DHT22;9239;50.932;3.142;2023-02-04T05:25:18;8.80;99.90
18229;DHT22;9239;50.932;3.142;2023-02-04T05:27:45;8.70;99.90
18229;DHT22;9239;50.932;3.142;2023-02-04T05:30:12;8.70;99.90
18229;DHT22;9239;50.932;3.142;2023-02-04T05:32:39;8.60;99.90
18229;DHT22;9239;50.932;3.142;2023-02-04T05:35:08;8.60;99.90
18229;DHT22;9239;50.932;3.142;2023-02-04T05:37:35;8.50;99.90
18229;DHT22;9239;50.932;3.142;2023-02-04T05:40:02;8.50;99.90
18229;DHT22;9239;50.932;3.142;2023-02-04T05:42:29;8.40;99.90
18229;DHT22;9239;50.932;3.142;2023-02-04T05:44:56;8.40;99.90
18229;DHT22;9239;50.932;3.142;2023-02-04T05:47:23;8.30;99.90
18229;DHT22;9239;50.932;3.142;2023-02-04T05:49:50;8.20;99.90
18229;DHT22;9239;50.932;3.142;2023-02-04T05:52:18;8.20;99.90
18229;DHT22;9239;50.932;3.142;2023-02-04T05:54:45;8.10;99.90
18229;DHT22;9239;50.932;3.142;2023-02-04T05:57:12;8.10;99.90
18229;DHT22;9239;50.932;3.142;2023-02-04T05:59:39;8.00;99.90
18229;DHT22;9239;50.932;3.142;2023-02-04T06:02:06;7.90;99.90
18229;DHT22;9239;50.932;3.142;2023-02-04T06:04:33;7.90;99.90
18229;DHT22;9239;50.932;3.142;2023-02-04T06:06:59;7.80;99.90
18229;DHT22;9239;50.932;3.142;2023-02-04T06:09:29;7.70;99.90
18229;DHT22;9239;50.932;3.142;2023-02-04T06:11:55;7.60;99.90
18229;DHT22;9239;50.932;3.142;2023-02-04T06:14:23;7.50;99.90
18229;DHT22;9239;50.932;3.142;2023-02-04T06:16:50;7.50;99.90
18229;DHT22;9239;50.932;3.142;2023-02-04T06:19:17;7.50;99.90
18229;DHT22;9239;50.932;3.142;2023-02-04T06:21:44;7.50;99.90
18229;DHT22;9239;50.932;3.142;2023-02-04T06:24:10;7.50;99.90
18229;DHT22;9239;50.932;3.142;2023-02-04T06:26:39;7.40;99.90
18229;DHT22;9239;50.932;3.142;2023-02-04T06:29:05;7.40;99.90
18229;DHT22;9239;50.932;3.142;2023-02-04T06:31:32;7.40;99.90
18229;DHT22;9239;50.932;3.142;2023-02-04T06:34:02;7.40;99.90
18229;DHT22;9239;50.932;3.142;2023-02-04T06:36:30;7.40;99.90
18229;DHT22;9239;50.932;3.142;2023-02-04T06:38:59;7.30;99.90
18229;DHT22;9239;50.932;3.142;2023-02-04T06:41:48;7.30;99.90
18229;DHT22;9239;50.932;3.142;2023-02-04T06:44:15;7.30;99.90
18229;DHT22;9239;50.932;3.142;2023-02-04T06:46:41;7.30;99.90
18229;DHT22;9239;50.932;3.142;2023-02-04T06:49:08;7.30;99.90
18229;DHT22;9239;50.932;3.142;2023-02-04T06:51:35;7.30;99.90
18229;DHT22;9239;50.932;3.142;2023-02-04T06:54:02;7.40;99.90
18229;DHT22;9239;50.932;3.142;2023-02-04T06:56:29;7.40;99.90
18229;DHT22;9239;50.932;3.142;2023-02-04T06:58:57;7.50;99.90
18229;DHT22;9239;50.932;3.142;2023-02-04T07:01:24;7.50;99.90
18229;DHT22;9239;50.932;3.142;2023-02-04T07:03:51;7.60;99.90
18229;DHT22;9239;50.932;3.142;2023-02-04T07:06:18;7.60;99.90
18229;DHT22;9239;50.932;3.142;2023-02-04T07:08:45;7.60;99.90
18229;DHT22;9239;50.932;3.142;2023-02-04T07:11:14;7.70;99.90
18229;DHT22;9239;50.932;3.142;2023-02-04T07:13:41;7.70;99.90
18229;DHT22;9239;50.932;3.142;2023-02-04T07:16:09;7.70;99.90
18229;DHT22;9239;50.932;3.142;2023-02-04T07:18:36;7.70;99.90
18229;DHT22;9239;50.932;3.142;2023-02-04T07:21:03;7.70;99.90
18229;DHT22;9239;50.932;3.142;2023-02-04T07:23:30;7.70;99.90
18229;DHT22;9239;50.932;3.142;2023-02-04T07:25:57;7.70;99.90
18229;DHT22;9239;50.932;3.142;2023-02-04T07:28:27;7.70;99.90
18229;DHT22;9239;50.932;3.142;2023-02-04T07:30:54;7.70;99.90
18229;DHT22;9239;50.932;3.142;2023-02-04T07:33:22;7.70;99.90
18229;DHT22;9239;50.932;3.142;2023-02-04T07:35:49;7.60;99.90
18229;DHT22;9239;50.932;3.142;2023-02-04T07:38:16;7.60;99.90
18229;DHT22;9239;50.932;3.142;2023-02-04T07:40:43;7.60;99.90
18229;DHT22;9239;50.932;3.142;2023-02-04T07:43:10;7.60;99.90
18229;DHT22;9239;50.932;3.142;2023-02-04T07:45:37;7.60;99.90
18229;DHT22;9239;50.932;3.142;2023-02-04T07:48:04;7.50;99.90
18229;DHT22;9239;50.932;3.142;2023-02-04T07:50:33;7.60;99.90
18229;DHT22;9239;50.932;3.142;2023-02-04T07:52:59;7.60;99.90
18229;DHT22;9239;50.932;3.142;2023-02-04T07:55:26;7.60;99.90
18229;DHT22;9239;50.932;3.142;2023-02-04T07:57:54;7.60;99.90
18229;DHT22;9239;50.932;3.142;2023-02-04T08:00:21;7.70;99.90
18229;DHT22;9239;50.932;3.142;2023-02-04T08:02:49;7.70;99.90
18229;DHT22;9239;50.932;3.142;2023-02-04T08:05:16;7.80;99.90
18229;DHT22;9239;50.932;3.142;2023-02-04T08:07:44;7.80;99.90
18229;DHT22;9239;50.932;3.142;2023-02-04T08:10:12;7.80;99.90
18229;DHT22;9239;50.932;3.142;2023-02-04T08:12:38;7.90;99.90
18229;DHT22;9239;50.932;3.142;2023-02-04T08:15:06;7.90;99.90
18229;DHT22;9239;50.932;3.142;2023-02-04T08:17:33;8.00;99.90
18229;DHT22;9239;50.932;3.142;2023-02-04T08:20:02;8.00;99.90
18229;DHT22;9239;50.932;3.142;2023-02-04T08:22:31;8.10;99.90
18229;DHT22;9239;50.932;3.142;2023-02-04T08:25:05;8.10;99.90
18229;DHT22;9239;50.932;3.142;2023-02-04T08:27:32;8.20;99.90
18229;DHT22;9239;50.932;3.142;2023-02-04T08:29:58;8.20;99.90
18229;DHT22;9239;50.932;3.142;2023-02-04T08:32:25;8.30;99.90
18229;DHT22;9239;50.932;3.142;2023-02-04T08:34:53;8.30;99.90
18229;DHT22;9239;50.932;3.142;2023-02-04T08:37:23;8.40;99.90
18229;DHT22;9239;50.932;3.142;2023-02-04T08:39:50;8.50;99.90
18229;DHT22;9239;50.932;3.142;2023-02-04T08:42:19;8.50;99.90
18229;DHT22;9239;50.932;3.142;2023-02-04T08:44:46;8.60;99.90
18229;DHT22;9239;50.932;3.142;2023-02-04T08:47:13;8.70;99.90
18229;DHT22;9239;50.932;3.142;2023-02-04T08:49:40;8.80;99.90
18229;DHT22;9239;50.932;3.142;2023-02-04T08:52:07;8.90;99.90
18229;DHT22;9239;50.932;3.142;2023-02-04T08:54:34;8.90;99.90
18229;DHT22;9239;50.932;3.142;2023-02-04T08:57:02;9.00;99.90
18229;DHT22;9239;50.932;3.142;2023-02-04T08:59:30;9.10;99.90
18229;DHT22;9239;50.932;3.142;2023-02-04T09:01:59;9.20;99.90
18229;DHT22;9239;50.932;3.142;2023-02-04T09:04:28;9.20;99.90
18229;DHT22;9239;50.932;3.142;2023-02-04T09:06:54;9.40;99.90
18229;DHT22;9239;50.932;3.142;2023-02-04T09:09:24;9.40;99.90
18229;DHT22;9239;50.932;3.142;2023-02-04T09:11:51;9.50;99.90
18229;DHT22;9239;50.932;3.142;2023-02-04T09:14:18;9.60;99.90
18229;DHT22;9239;50.932;3.142;2023-02-04T09:16:46;9.70;99.90
18229;DHT22;9239;50.932;3.142;2023-02-04T09:19:14;9.70;99.90
18229;DHT22;9239;50.932;3.142;2023-02-04T09:21:43;9.80;99.90
18229;DHT22;9239;50.932;3.142;2023-02-04T09:24:10;9.80;99.90
18229;DHT22;9239;50.932;3.142;2023-02-04T09:26:37;9.80;99.90
18229;DHT22;9239;50.932;3.142;2023-02-04T09:29:04;9.90;99.90
18229;DHT22;9239;50.932;3.142;2023-02-04T09:31:31;10.00;99.90
18229;DHT22;9239;50.932;3.142;2023-02-04T09:33:59;10.00;99.90
18229;DHT22;9239;50.932;3.142;2023-02-04T09:36:26;10.10;99.90
18229;DHT22;9239;50.932;3.142;2023-02-04T09:38:55;10.10;99.90
18229;DHT22;9239;50.932;3.142;2023-02-04T09:41:22;10.10;99.90
18229;DHT22;9239;50.932;3.142;2023-02-04T09:43:49;10.10;99.90
18229;DHT22;9239;50.932;3.142;2023-02-04T09:46:19;10.10;99.90
18229;DHT22;9239;50.932;3.142;2023-02-04T09:48:47;10.10;99.90
18229;DHT22;9239;50.932;3.142;2023-02-04T09:51:18;10.20;99.90
18229;DHT22;9239;50.932;3.142;2023-02-04T09:53:46;10.20;99.90
18229;DHT22;9239;50.932;3.142;2023-02-04T09:56:13;10.30;99.90
18229;DHT22;9239;50.932;3.142;2023-02-04T09:58:42;10.30;99.90
18229;DHT22;9239;50.932;3.142;2023-02-04T10:01:14;10.40;99.90
18229;DHT22;9239;50.932;3.142;2023-02-04T10:03:43;10.40;99.90
18229;DHT22;9239;50.932;3.142;2023-02-04T10:06:12;10.50;99.90
18229;DHT22;9239;50.932;3.142;2023-02-04T10:08:41;10.50;99.90
18229;DHT22;9239;50.932;3.142;2023-02-04T10:11:09;10.50;99.90
18229;DHT22;9239;50.932;3.142;2023-02-04T10:13:38;10.50;99.90
18229;DHT22;9239;50.932;3.142;2023-02-04T10:16:14;10.50;99.90
18229;DHT22;9239;50.932;3.142;2023-02-04T10:18:42;10.60;99.90
18229;DHT22;9239;50.932;3.142;2023-02-04T10:21:15;10.60;99.90
18229;DHT22;9239;50.932;3.142;2023-02-04T10:23:46;10.70;99.90
18229;DHT22;9239;50.932;3.142;2023-02-04T10:26:15;10.70;99.90
18229;DHT22;9239;50.932;3.142;2023-02-04T10:28:42;10.70;99.90
18229;DHT22;9239;50.932;3.142;2023-02-04T10:31:34;10.80;99.90
18229;DHT22;9239;50.932;3.142;2023-02-04T10:34:08;10.80;99.90
18229;DHT22;9239;50.932;3.142;2023-02-04T10:36:36;10.80;99.90
18229;DHT22;9239;50.932;3.142;2023-02-04T10:39:05;10.70;99.90
18229;DHT22;9239;50.932;3.142;2023-02-04T10:41:32;10.80;99.90
18229;DHT22;9239;50.932;3.142;2023-02-04T10:44:04;10.90;99.90
18229;DHT22;9239;50.932;3.142;2023-02-04T10:46:32;10.90;99.90
18229;DHT22;9239;50.932;3.142;2023-02-04T10:48:58;10.90;99.90
18229;DHT22;9239;50.932;3.142;2023-02-04T10:51:25;11.00;99.90
18229;DHT22;9239;50.932;3.142;2023-02-04T10:53:52;11.00;99.90
18229;DHT22;9239;50.932;3.142;2023-02-04T10:56:38;11.10;99.90
18229;DHT22;9239;50.932;3.142;2023-02-04T10:59:07;11.20;99.90
18229;DHT22;9239;50.932;3.142;2023-02-04T11:01:38;11.30;99.90
18229;DHT22;9239;50.932;3.142;2023-02-04T11:04:08;11.30;99.90
18229;DHT22;9239;50.932;3.142;2023-02-04T11:06:36;11.20;99.90
18229;DHT22;9239;50.932;3.142;2023-02-04T11:09:02;11.20;99.90
18229;DHT22;9239;50.932;3.142;2023-02-04T11:11:29;11.00;99.90
18229;DHT22;9239;50.932;3.142;2023-02-04T11:14:00;10.80;99.90
18229;DHT22;9239;50.932;3.142;2023-02-04T11:16:29;10.80;99.90
18229;DHT22;9239;50.932;3.142;2023-02-04T11:18:58;10.80;99.90
18229;DHT22;9239;50.932;3.142;2023-02-04T11:21:27;10.90;99.90
18229;DHT22;9239;50.932;3.142;2023-02-04T11:24:22;10.80;99.90
18229;DHT22;9239;50.932;3.142;2023-02-04T11:26:51;10.80;99.90
18229;DHT22;9239;50.932;3.142;2023-02-04T11:29:28;10.90;99.90
18229;DHT22;9239;50.932;3.142;2023-02-04T11:32:03;10.90;99.90
18229;DHT22;9239;50.932;3.142;2023-02-04T11:34:45;11.10;99.90
18229;DHT22;9239;50.932;3.142;2023-02-04T11:37:17;11.00;99.90
18229;DHT22;9239;50.932;3.142;2023-02-04T11:39:45;11.10;99.90
18229;DHT22;9239;50.932;3.142;2023-02-04T11:42:20;11.20;99.90
18229;DHT22;9239;50.932;3.142;2023-02-04T11:44:51;11.30;99.90
18229;DHT22;9239;50.932;3.142;2023-02-04T11:47:19;11.20;99.90
18229;DHT22;9239;50.932;3.142;2023-02-04T11:49:53;11.10;99.90
18229;DHT22;9239;50.932;3.142;2023-02-04T11:52:21;11.20;99.90
18229;DHT22;9239;50.932;3.142;2023-02-04T11:54:55;11.30;99.90
18229;DHT22;9239;50.932;3.142;2023-02-04T11:57:22;11.40;99.90
18229;DHT22;9239;50.932;3.142;2023-02-04T11:59:50;11.40;99.90
18229;DHT22;9239;50.932;3.142;2023-02-04T12:02:19;11.50;99.90
18229;DHT22;9239;50.932;3.142;2023-02-04T12:04:53;11.50;99.90
18229;DHT22;9239;50.932;3.142;2023-02-04T12:07:24;11.50;99.90
18229;DHT22;9239;50.932;3.142;2023-02-04T12:09:51;11.60;99.90
18229;DHT22;9239;50.932;3.142;2023-02-04T12:12:26;11.60;99.90
18229;DHT22;9239;50.932;3.142;2023-02-04T12:15:00;11.50;99.90
18229;DHT22;9239;50.932;3.142;2023-02-04T12:17:27;11.50;99.90
18229;DHT22;9239;50.932;3.142;2023-02-04T12:19:54;11.50;99.90
18229;DHT22;9239;50.932;3.142;2023-02-04T12:22:21;11.50;99.90
18229;DHT22;9239;50.932;3.142;2023-02-04T12:24:48;11.50;99.90
18229;DHT22;9239;50.932;3.142;2023-02-04T12:27:17;11.40;99.90
18229;DHT22;9239;50.932;3.142;2023-02-04T12:29:44;11.50;99.90
18229;DHT22;9239;50.932;3.142;2023-02-04T12:32:12;11.60;99.90
18229;DHT22;9239;50.932;3.142;2023-02-04T12:34:39;11.70;99.90
18229;DHT22;9239;50.932;3.142;2023-02-04T12:37:06;11.60;99.90
18229;DHT22;9239;50.932;3.142;2023-02-04T12:39:32;11.60;99.90
18229;DHT22;9239;50.932;3.142;2023-02-04T12:41:59;11.60;99.90
18229;DHT22;9239;50.932;3.142;2023-02-04T12:44:27;11.60;99.90
18229;DHT22;9239;50.932;3.142;2023-02-04T12:46:53;11.60;99.90
18229;DHT22;9239;50.932;3.142;2023-02-04T12:49:22;11.60;99.90
18229;DHT22;9239;50.932;3.142;2023-02-04T12:51:49;11.60;99.90
18229;DHT22;9239;50.932;3.142;2023-02-04T12:54:16;11.70;99.90
18229;DHT22;9239;50.932;3.142;2023-02-04T12:56:43;11.70;99.90
18229;DHT22;9239;50.932;3.142;2023-02-04T12:59:11;11.70;99.90
18229;DHT22;9239;50.932;3.142;2023-02-04T13:01:37;11.70;99.90
18229;DHT22;9239;50.932;3.142;2023-02-04T13:04:04;11.80;99.90
18229;DHT22;9239;50.932;3.142;2023-02-04T13:06:32;11.80;99.90
18229;DHT22;9239;50.932;3.142;2023-02-04T13:08:59;11.80;99.90
18229;DHT22;9239;50.932;3.142;2023-02-04T13:11:26;11.70;99.90
18229;DHT22;9239;50.932;3.142;2023-02-04T13:13:53;11.80;99.90
18229;DHT22;9239;50.932;3.142;2023-02-04T13:16:20;11.80;99.90
18229;DHT22;9239;50.932;3.142;2023-02-04T13:18:49;11.80;99.90
18229;DHT22;9239;50.932;3.142;2023-02-04T13:21:16;11.70;99.90
18229;DHT22;9239;50.932;3.142;2023-02-04T13:23:44;11.60;99.90
18229;DHT22;9239;50.932;3.142;2023-02-04T13:26:11;11.60;99.90
18229;DHT22;9239;50.932;3.142;2023-02-04T13:28:38;11.60;99.90
18229;DHT22;9239;50.932;3.142;2023-02-04T13:31:05;11.60;99.90
18229;DHT22;9239;50.932;3.142;2023-02-04T13:33:32;11.60;99.90
18229;DHT22;9239;50.932;3.142;2023-02-04T13:35:58;11.40;99.90
18229;DHT22;9239;50.932;3.142;2023-02-04T13:38:25;11.40;99.90
18229;DHT22;9239;50.932;3.142;2023-02-04T13:40:54;11.40;99.90
18229;DHT22;9239;50.932;3.142;2023-02-04T13:43:20;11.30;99.90
18229;DHT22;9239;50.932;3.142;2023-02-04T13:45:48;11.30;99.90
18229;DHT22;9239;50.932;3.142;2023-02-04T13:48:15;11.30;99.90
18229;DHT22;9239;50.932;3.142;2023-02-04T13:50:43;11.40;99.90
18229;DHT22;9239;50.932;3.142;2023-02-04T13:53:10;11.40;99.90
18229;DHT22;9239;50.932;3.142;2023-02-04T13:55:36;11.50;99.90
18229;DHT22;9239;50.932;3.142;2023-02-04T13:58:05;11.40;99.90
18229;DHT22;9239;50.932;3.142;2023-02-04T14:00:32;11.40;99.90
18229;DHT22;9239;50.932;3.142;2023-02-04T14:02:58;11.50;99.90
18229;DHT22;9239;50.932;3.142;2023-02-04T14:05:25;11.50;99.90
18229;DHT22;9239;50.932;3.142;2023-02-04T14:07:52;11.50;99.90
18229;DHT22;9239;50.932;3.142;2023-02-04T14:10:19;11.50;99.90
18229;DHT22;9239;50.932;3.142;2023-02-04T14:12:49;11.50;99.90
18229;DHT22;9239;50.932;3.142;2023-02-04T14:15:17;11.50;99.90
18229;DHT22;9239;50.932;3.142;2023-02-04T14:17:44;11.40;99.90
18229;DHT22;9239;50.932;3.142;2023-02-04T14:20:11;11.40;99.90
18229;DHT22;9239;50.932;3.142;2023-02-04T14:22:38;11.50;99.90
18229;DHT22;9239;50.932;3.142;2023-02-04T14:25:05;11.50;99.90
18229;DHT22;9239;50.932;3.142;2023-02-04T14:27:34;11.50;99.90
18229;DHT22;9239;50.932;3.142;2023-02-04T14:30:03;11.50;99.90
18229;DHT22;9239;50.932;3.142;2023-02-04T14:32:32;11.50;99.90
18229;DHT22;9239;50.932;3.142;2023-02-04T14:34:58;11.50;99.90
18229;DHT22;9239;50.932;3.142;2023-02-04T14:37:25;11.50;99.90
18229;DHT22;9239;50.932;3.142;2023-02-04T14:39:53;11.50;99.90
18229;DHT22;9239;50.932;3.142;2023-02-04T14:42:20;11.30;99.90
18229;DHT22;9239;50.932;3.142;2023-02-04T14:44:47;11.30;99.90
18229;DHT22;9239;50.932;3.142;2023-02-04T14:47:14;11.20;99.90
18229;DHT22;9239;50.932;3.142;2023-02-04T14:49:42;11.20;99.90
18229;DHT22;9239;50.932;3.142;2023-02-04T14:52:09;11.20;99.90
18229;DHT22;9239;50.932;3.142;2023-02-04T14:54:37;11.20;99.90
18229;DHT22;9239;50.932;3.142;2023-02-04T14:57:04;11.20;99.90
18229;DHT22;9239;50.932;3.142;2023-02-04T14:59:35;11.20;99.90
18229;DHT22;9239;50.932;3.142;2023-02-04T15:02:02;11.10;99.90
18229;DHT22;9239;50.932;3.142;2023-02-04T15:04:29;11.10;99.90
18229;DHT22;9239;50.932;3.142;2023-02-04T15:06:57;11.00;99.90
18229;DHT22;9239;50.932;3.142;2023-02-04T15:09:25;11.00;99.90
18229;DHT22;9239;50.932;3.142;2023-02-04T15:11:52;11.00;99.90
18229;DHT22;9239;50.932;3.142;2023-02-04T15:14:19;11.00;99.90
18229;DHT22;9239;50.932;3.142;2023-02-04T15:16:46;11.00;99.90
18229;DHT22;9239;50.932;3.142;2023-02-04T15:19:13;11.00;99.90
18229;DHT22;9239;50.932;3.142;2023-02-04T15:21:40;10.90;99.90
18229;DHT22;9239;50.932;3.142;2023-02-04T15:24:09;10.90;99.90
18229;DHT22;9239;50.932;3.142;2023-02-04T15:26:36;10.80;99.90
18229;DHT22;9239;50.932;3.142;2023-02-04T15:29:04;10.80;99.90
18229;DHT22;9239;50.932;3.142;2023-02-04T15:31:31;10.80;99.90
18229;DHT22;9239;50.932;3.142;2023-02-04T15:33:58;10.80;99.90
18229;DHT22;9239;50.932;3.142;2023-02-04T15:36:25;10.90;99.90
18229;DHT22;9239;50.932;3.142;2023-02-04T15:38:52;10.80;99.90
18229;DHT22;9239;50.932;3.142;2023-02-04T15:41:20;10.80;99.90
18229;DHT22;9239;50.932;3.142;2023-02-04T15:43:48;10.70;99.90
18229;DHT22;9239;50.932;3.142;2023-02-04T15:46:15;10.70;99.90
18229;DHT22;9239;50.932;3.142;2023-02-04T15:48:42;10.70;99.90
18229;DHT22;9239;50.932;3.142;2023-02-04T15:51:09;10.60;99.90
18229;DHT22;9239;50.932;3.142;2023-02-04T15:53:36;10.60;99.90
18229;DHT22;9239;50.932;3.142;2023-02-04T15:56:03;10.60;99.90